This is the latest recevied weather packets stored in our database for station/object K8FJG-13. If no packets are shown the sender has not sent any weather packets the latest 10 day(s).
| Time | Temp. | Humidity | Pressure | Rain* | Wind** | Luminosity | Snow |
|---|---|---|---|---|---|---|---|
| 1787419933 | 20.56° C | 91% | 968 hPa | - | - | - | - |
| 1787419330 | 22.22° C | 88% | 967.4 hPa | - | - | - | - |
| 1787418727 | 23.89° C | 87% | 966.9 hPa | - | - | - | - |
| 1787418123 | 24.44° C | 78% | 967.5 hPa | - | - | - | - |
| 1787417520 | 25° C | 74% | 967.6 hPa | - | - | - | - |
| 1787416917 | 25° C | 71% | 967.7 hPa | - | - | - | - |
| 1787416314 | 25.56° C | 71% | 967.8 hPa | - | - | - | - |
| 1787415711 | 25.56° C | 70% | 967.9 hPa | - | - | - | - |
| 1787415108 | 25° C | 69% | 968.2 hPa | - | - | - | - |
| 1787414504 | 24.44° C | 73% | 968.5 hPa | - | - | - | - |
| 1787413901 | 24.44° C | 72% | 968.7 hPa | - | - | - | - |
| 1787413298 | 24.44° C | 73% | 968.7 hPa | - | - | - | - |
| 1787412695 | 23.89° C | 74% | 968.8 hPa | - | - | - | - |
| 1787412092 | 23.89° C | 72% | 968.9 hPa | - | - | - | - |
| 1787411489 | 23.89° C | 74% | 969.1 hPa | - | - | - | - |
| 1787410886 | 23.89° C | 72% | 969.2 hPa | - | - | - | - |
| 1787410283 | 23.89° C | 73% | 969.3 hPa | - | - | - | - |
| 1787409680 | 23.33° C | 75% | 969.3 hPa | - | - | - | - |
| 1787409076 | 23.33° C | 74% | 969.4 hPa | - | - | - | - |
| 1787408474 | 23.33° C | 73% | 969.4 hPa | - | - | - | - |
| 1787407870 | 22.78° C | 75% | 969.5 hPa | - | - | - | - |
| 1787407267 | 22.22° C | 78% | 969.6 hPa | - | - | - | - |
| 1787406664 | 21.67° C | 79% | 969.6 hPa | - | - | - | - |
| 1787406061 | 21.11° C | 81% | 969.6 hPa | - | - | - | - |
| 1787405458 | 20.56° C | 83% | 969.7 hPa | - | - | - | - |
* Rain since midnight (hover to see other rain measurements)
** Current wind speed in m/s (hover to see current wind gust speed)